Auke Bay, Alaska
Current Conditions -  °F | °C
As of 2:53 AM on Wednesday 28 Jan 2015 (Local Time) from PAJN Reporting Station
Overcast Overcast  
Wind Chill: 30°   Ceiling: 4000
Heat Index: 30°   Visibility: 10mi
Dew Point: 28°   Wind: 0mph
Humidity: 92%   Direction: NA
Pressure: 30.2"   Gusts: NA
Location:  58.38°N, 134.67°W
Report Text: PAJN 281153Z 00000KT 10SM FEW004 OVC040 M01/M02 A3020 RMK AO2 SNE45 SLP225 P0000 60000 T10111022 11011 21017 50002
Loading
Personal Weather Stations






























Interactive Weather Map New forecast layout! Learn more

10-Day Weather Forecast

Advertisements
Track Severe Weather on mobile